createdAt,value
2018-11-20T00:06:03.461Z,6.07
2018-11-20T00:14:42.306Z,6.60
2018-11-20T00:23:31.310Z,5.33
2018-11-20T00:31:58.174Z,6.07
2018-11-20T00:40:25.074Z,7.57
2018-11-20T00:48:52.134Z,7.40
2018-11-20T00:57:19.259Z,7.67
2018-11-20T01:02:00.873Z,8.53
2018-11-20T01:06:42.493Z,8.00
2018-11-20T01:11:24.094Z,7.10
2018-11-20T01:16:05.714Z,9.00
2018-11-20T01:20:47.316Z,8.23
2018-11-20T01:25:28.934Z,7.20
2018-11-20T01:30:10.564Z,8.90
2018-11-20T01:34:52.194Z,8.27
2018-11-20T01:39:33.793Z,7.33
2018-11-20T01:44:15.406Z,7.27
2018-11-20T01:48:57.010Z,8.30
2018-11-20T01:53:29.258Z,7.70
2018-11-20T01:58:10.866Z,8.87
2018-11-20T02:02:52.484Z,9.37
2018-11-20T02:07:26.806Z,8.60
2018-11-20T02:16:40.323Z,8.37
2018-11-20T02:21:22.173Z,8.10
2018-11-20T02:26:03.817Z,7.90
2018-11-20T02:30:45.425Z,8.93
2018-11-20T02:35:27.042Z,7.40
2018-11-20T02:40:08.650Z,7.53
2018-11-20T02:44:50.268Z,8.10
2018-11-20T02:49:31.869Z,7.60
2018-11-20T02:54:13.512Z,8.27
2018-11-20T02:58:55.637Z,8.93
2018-11-20T03:03:37.310Z,7.87
2018-11-20T03:08:19.404Z,8.07
2018-11-20T03:13:01.033Z,8.10
2018-11-20T03:17:42.642Z,7.73
2018-11-20T03:22:24.257Z,8.77
2018-11-20T03:27:05.962Z,8.10
2018-11-20T03:31:47.488Z,9.03
2018-11-20T03:36:29.088Z,8.30
2018-11-20T03:41:10.710Z,8.70
2018-11-20T03:45:52.383Z,9.40
2018-11-20T03:50:34.000Z,8.77
2018-11-20T04:00:08.053Z,10.40
2018-11-20T04:04:49.666Z,10.03
2018-11-20T04:09:31.288Z,9.77
2018-11-20T04:14:10.759Z,8.43
2018-11-20T04:18:52.380Z,11.10
2018-11-20T04:23:34.514Z,10.50
2018-11-20T04:32:51.862Z,10.57
2018-11-20T04:37:33.464Z,12.07
2018-11-20T04:42:11.146Z,10.30
2018-11-20T04:46:52.754Z,10.07
2018-11-20T04:51:34.375Z,12.20
2018-11-20T04:56:15.975Z,12.83
2018-11-20T05:00:57.600Z,11.83
2018-11-20T05:05:30.154Z,12.47
2018-11-20T05:10:11.802Z,12.03
2018-11-20T05:14:53.405Z,12.93
2018-11-20T05:19:35.023Z,12.07
2018-11-20T05:24:16.649Z,10.27
2018-11-20T05:28:58.266Z,12.23
2018-11-20T05:33:31.289Z,12.20
2018-11-20T05:38:12.918Z,11.80
2018-11-20T05:42:54.524Z,13.37
2018-11-20T05:47:27.044Z,12.00
2018-11-20T05:52:08.647Z,11.20
2018-11-20T05:56:50.329Z,11.00
2018-11-20T06:01:31.943Z,12.20
2018-11-20T06:06:13.672Z,12.00
2018-11-20T06:10:55.160Z,11.00
2018-11-20T06:15:37.322Z,13.47
2018-11-20T06:20:18.943Z,11.30
2018-11-20T06:25:00.619Z,11.10
2018-11-20T06:29:42.757Z,12.57
2018-11-20T06:34:24.683Z,13.87
2018-11-20T06:39:06.243Z,13.97
2018-11-20T06:43:40.469Z,14.30
2018-11-20T06:48:22.076Z,14.60
2018-11-20T06:53:03.796Z,14.80
2018-11-20T06:57:45.303Z,14.73
2018-11-20T07:02:26.919Z,14.47
2018-11-20T07:07:08.594Z,14.43
2018-11-20T07:11:50.166Z,14.63
2018-11-20T07:16:31.845Z,15.13
2018-11-20T07:21:04.165Z,13.70
2018-11-20T07:25:45.764Z,15.43
2018-11-20T07:30:27.457Z,14.13
2018-11-20T07:35:09.003Z,14.60
2018-11-20T07:39:50.621Z,12.80
2018-11-20T07:44:19.476Z,13.83
2018-11-20T07:49:01.039Z,14.50
2018-11-20T07:53:32.487Z,16.40
2018-11-20T07:58:14.648Z,16.40
2018-11-20T08:02:56.248Z,13.67
2018-11-20T08:07:38.645Z,13.80
2018-11-20T08:12:20.253Z,15.30
2018-11-20T08:17:01.870Z,12.37
2018-11-20T08:21:34.729Z,13.90
2018-11-20T08:26:16.553Z,13.13
2018-11-20T08:30:57.980Z,15.07
2018-11-20T08:35:30.145Z,16.13
2018-11-20T08:40:11.798Z,16.07
2018-11-20T08:44:53.426Z,14.97
2018-11-20T08:49:35.033Z,15.53
2018-11-20T08:59:02.059Z,14.90
2018-11-20T09:03:43.661Z,17.33
2018-11-20T09:08:25.280Z,13.67
2018-11-20T09:13:06.892Z,13.60
2018-11-20T09:17:48.545Z,13.63
2018-11-20T09:22:30.123Z,13.47
2018-11-20T09:27:11.759Z,14.20
2018-11-20T09:31:53.354Z,13.63
2018-11-20T09:36:34.983Z,13.47
2018-11-20T09:41:17.113Z,14.47
2018-11-20T09:45:58.732Z,13.77
2018-11-20T09:50:40.340Z,14.40
2018-11-20T09:55:21.967Z,14.90
2018-11-20T10:00:03.566Z,15.33
2018-11-20T10:04:45.185Z,14.80
2018-11-20T10:09:26.788Z,15.60
2018-11-20T10:13:49.942Z,13.20
2018-11-20T10:23:28.638Z,13.63
2018-11-20T10:28:10.243Z,15.17
2018-11-20T10:32:51.865Z,14.80
2018-11-20T10:37:21.996Z,14.73
2018-11-20T10:42:04.151Z,15.23
2018-11-20T10:46:45.838Z,14.50
2018-11-20T10:51:27.385Z,15.07
2018-11-20T10:56:08.987Z,13.60
2018-11-20T11:00:50.607Z,15.10
2018-11-20T11:05:51.802Z,15.67
2018-11-20T11:10:31.557Z,14.17
2018-11-20T11:20:14.688Z,15.30
2018-11-20T11:24:56.258Z,14.60
2018-11-20T11:29:37.877Z,13.93
2018-11-20T11:34:19.480Z,15.00
2018-11-20T11:39:01.100Z,15.47
2018-11-20T11:43:42.705Z,15.67
2018-11-20T11:48:18.854Z,13.97
2018-11-20T12:06:04.224Z,14.97
2018-11-20T12:28:01.728Z,15.47
2018-11-20T12:49:38.932Z,17.07
2018-11-20T13:24:26.313Z,16.33
2018-11-20T14:32:30.638Z,18.57
2018-11-20T15:45:12.095Z,17.23
2018-11-20T16:07:14.720Z,16.40
2018-11-20T16:28:52.896Z,15.60
2018-11-20T16:41:42.173Z,16.90
2018-11-20T17:50:07.146Z,19.90
2018-11-20T18:20:12.432Z,17.73
2018-11-20T18:33:20.309Z,21.00
2018-11-20T18:58:49.221Z,19.60
2018-11-20T19:07:16.349Z,20.27
2018-11-20T19:16:05.627Z,20.67
2018-11-20T19:24:56.090Z,21.33
2018-11-20T19:33:23.457Z,21.20
2018-11-20T19:41:50.527Z,21.70
2018-11-20T19:50:17.870Z,22.20
2018-11-20T19:59:09.784Z,23.90
2018-11-20T20:07:36.326Z,22.73
2018-11-20T20:11:58.878Z,24.20
2018-11-20T20:16:41.127Z,23.47
2018-11-20T20:21:22.781Z,25.03
2018-11-20T20:26:04.405Z,25.80
2018-11-20T20:30:46.017Z,25.40
2018-11-20T20:35:27.636Z,24.40
2018-11-20T20:40:09.483Z,24.93
2018-11-20T20:44:51.101Z,26.67
2018-11-20T20:49:32.705Z,25.30
2018-11-20T20:54:14.328Z,28.50
2018-11-20T20:58:55.973Z,25.77
2018-11-20T21:03:37.588Z,25.50
2018-11-20T21:08:19.193Z,25.17
2018-11-20T21:13:00.818Z,26.40
2018-11-20T21:17:42.425Z,28.70
2018-11-20T21:22:24.647Z,24.33
2018-11-20T21:27:06.258Z,25.80
2018-11-20T21:31:48.419Z,26.80
2018-11-20T21:36:30.021Z,25.00
2018-11-20T21:41:11.641Z,27.57
2018-11-20T21:45:45.959Z,25.30
2018-11-20T21:50:27.594Z,27.20
2018-11-20T21:55:09.196Z,26.20
2018-11-20T21:59:50.817Z,26.10
2018-11-20T22:04:23.422Z,27.10
2018-11-20T22:09:05.033Z,25.83
2018-11-20T22:13:47.180Z,23.70
2018-11-20T22:18:28.808Z,26.23
2018-11-20T22:23:10.414Z,25.70
2018-11-20T22:27:52.031Z,25.13
2018-11-20T22:32:33.633Z,24.60
2018-11-20T22:41:48.803Z,25.43
2018-11-20T22:46:30.409Z,23.70
2018-11-20T22:51:12.030Z,26.70
2018-11-20T23:00:53.709Z,25.40
2018-11-20T23:05:35.007Z,23.77
2018-11-20T23:09:57.738Z,23.97
2018-11-20T23:14:20.458Z,24.50
2018-11-20T23:27:54.832Z,23.70
2018-11-20T23:32:17.670Z,23.30
2018-11-20T23:41:15.418Z,23.97
2018-11-20T23:45:38.758Z,22.80
2018-11-20T23:54:37.132Z,23.40
2018-11-20T23:58:59.856Z,22.23
